Time;durP1;ratioP1;P1;durP2;ratioP2;P2;SDS_P1;SDS_P2;PMS_P1;PMS_P2;Temp;Humidity;BMP_temperature;BMP_pressure;BME280_temperature;BME280_humidity;BME280_pressure;Samples;Min_cycle;Max_cycle;Signal;HPM_P1;HPM_P2
2023/04/25 00:00:40;;;;;;;8.35;3.17;;;;;;;16.80;55.14;100327.28;4977837;28;20051;-80
2023/04/25 00:03:08;;;;;;;12.20;3.20;;;;;;;16.76;54.93;100299.16;4972956;28;20054;-81
2023/04/25 00:08:33;;;;;;;11.77;3.20;;;;;;;16.82;54.83;100294.91;4963001;28;20572;-84
2023/04/25 00:11:02;;;;;;;6.45;2.67;;;;;;;16.65;55.54;100310.31;4981624;28;20361;-84
2023/04/25 00:13:32;;;;;;;5.82;3.03;;;;;;;16.40;56.00;100286.44;4994619;28;20356;-84
2023/04/25 00:15:59;;;;;;;8.23;3.00;;;;;;;16.13;56.92;100284.34;4978412;28;20137;-84
2023/04/25 00:18:29;;;;;;;10.15;3.53;;;;;;;16.34;57.27;100330.03;4975119;28;20049;-84
2023/04/25 00:21:07;;;;;;;7.00;2.70;;;;;;;16.08;57.23;100297.47;4991991;28;20053;-83
2023/04/25 00:23:36;;;;;;;13.38;3.15;;;;;;;16.23;57.40;100311.72;5018633;28;20041;-83
2023/04/25 00:26:05;;;;;;;8.05;2.80;;;;;;;16.25;58.16;100331.13;4993626;28;20234;-84
2023/04/25 00:28:31;;;;;;;11.70;3.22;;;;;;;16.10;58.15;100312.31;5002478;28;20317;-81
2023/04/25 00:30:59;;;;;;;6.95;2.88;;;;;;;16.17;59.01;100339.22;5019301;28;20053;-80
2023/04/25 00:33:26;;;;;;;6.35;2.63;;;;;;;16.02;59.40;100336.50;5022264;28;20052;-84
2023/04/25 00:35:56;;;;;;;9.57;3.10;;;;;;;15.87;59.58;100333.72;5015588;28;20041;-83
2023/04/25 00:38:23;;;;;;;6.63;3.40;;;;;;;15.60;60.19;100306.44;5000371;28;20099;-84
2023/04/25 00:41:00;;;;;;;11.95;3.15;;;;;;;15.51;61.37;100323.56;5008347;28;20346;-84
2023/04/25 00:43:29;;;;;;;8.90;3.55;;;;;;;15.32;61.10;100297.25;4991603;28;20457;-82
2023/04/25 00:45:57;;;;;;;8.13;3.42;;;;;;;15.35;61.08;100299.56;4962116;28;20399;-82
2023/04/25 00:48:27;;;;;;;7.55;3.40;;;;;;;15.04;62.39;100304.88;4978743;28;20211;-83
2023/04/25 00:51:01;;;;;;;10.02;3.70;;;;;;;15.11;62.21;100306.69;4978724;28;20077;-82
2023/04/25 00:53:45;;;;;;;11.15;3.58;;;;;;;14.88;62.34;100269.19;4964323;28;20062;-81
2023/04/25 00:56:28;;;;;;;10.27;3.40;;;;;;;15.00;62.87;100299.06;4956291;28;20302;-83
2023/04/25 00:58:56;;;;;;;9.48;3.42;;;;;;;14.95;62.52;100286.19;4960731;28;20068;-82
2023/04/25 01:01:29;;;;;;;10.05;3.90;;;;;;;15.14;62.67;100316.19;4982039;28;20046;-83
2023/04/25 01:03:57;;;;;;;10.68;3.78;;;;;;;14.82;62.57;100255.69;4977703;28;20054;-84
2023/04/25 01:06:31;;;;;;;9.73;4.25;;;;;;;14.98;62.90;100303.72;4955430;28;20129;-83
2023/04/25 01:09:07;;;;;;;9.40;4.20;;;;;;;14.90;63.39;100301.06;4967099;28;20046;-83
2023/04/25 01:11:34;;;;;;;12.48;3.75;;;;;;;14.73;63.47;100273.56;4990396;28;20049;-82
2023/04/25 01:14:07;;;;;;;6.60;3.83;;;;;;;14.78;63.43;100278.41;4977801;28;20131;-81
2023/04/25 01:16:42;;;;;;;14.63;4.38;;;;;;;14.69;63.54;100275.75;4980929;28;20644;-80
2023/04/25 01:19:17;;;;;;;9.52;4.25;;;;;;;14.47;63.90;100255.91;4992024;28;20060;-81
2023/04/25 01:21:55;;;;;;;10.25;3.60;;;;;;;14.73;64.25;100314.50;4994406;28;20045;-83
2023/04/25 01:24:22;;;;;;;10.60;4.35;;;;;;;14.74;64.16;100302.78;4995384;28;20057;-81
2023/04/25 01:26:50;;;;;;;7.70;4.20;;;;;;;14.57;64.86;100306.50;4999165;28;20042;-81
2023/04/25 01:29:28;;;;;;;12.07;4.03;;;;;;;14.25;65.24;100262.78;4999794;28;20061;-81
2023/04/25 01:31:59;;;;;;;9.95;4.65;;;;;;;14.46;64.63;100274.75;4986024;28;20057;-82
2023/04/25 01:34:33;;;;;;;9.57;4.57;;;;;;;14.70;64.40;100314.00;4984196;28;20157;-81
2023/04/25 01:37:01;;;;;;;12.98;4.32;;;;;;;14.64;64.56;100309.34;4997617;28;20046;-82
2023/04/25 01:39:28;;;;;;;9.77;5.30;;;;;;;14.60;64.70;100316.84;4997336;28;20678;-82
2023/04/25 01:41:55;;;;;;;15.30;4.32;;;;;;;14.47;64.78;100300.50;5000722;28;20129;-82
2023/04/25 01:44:23;;;;;;;11.57;5.15;;;;;;;14.30;64.95;100300.50;4968909;28;20390;-81
2023/04/25 01:46:56;;;;;;;9.32;4.57;;;;;;;14.14;64.58;100251.63;4981758;28;20054;-81
2023/04/25 01:49:29;;;;;;;12.27;5.45;;;;;;;14.45;64.83;100310.50;4989021;28;20454;-83
2023/04/25 01:51:56;;;;;;;6.75;4.38;;;;;;;14.42;65.06;100314.34;5001998;28;20415;-81
2023/04/25 01:54:23;;;;;;;10.27;5.25;;;;;;;14.44;64.83;100309.69;5002743;28;20068;-82
2023/04/25 01:56:51;;;;;;;11.23;4.55;;;;;;;14.11;64.97;100255.47;5010143;28;20108;-82
2023/04/25 01:59:26;;;;;;;6.90;4.85;;;;;;;14.51;64.62;100315.16;4995924;28;20248;-82
2023/04/25 02:01:59;;;;;;;8.30;4.55;;;;;;;14.45;64.71;100311.31;4999136;28;20476;-83
2023/04/25 02:04:30;;;;;;;9.30;4.78;;;;;;;14.30;64.67;100292.47;5005262;28;20042;-84
2023/04/25 02:07:00;;;;;;;8.50;4.43;;;;;;;14.33;65.23;100312.69;4990284;28;20423;-81
2023/04/25 02:09:29;;;;;;;8.32;4.13;;;;;;;14.27;65.58;100308.84;4991668;28;20038;-81
2023/04/25 02:11:57;;;;;;;9.40;4.97;;;;;;;14.29;65.45;100312.16;5005018;28;20201;-81
2023/04/25 02:14:32;;;;;;;11.90;5.35;;;;;;;14.43;64.74;100309.81;5005203;28;20145;-84
2023/04/25 02:17:02;;;;;;;8.40;4.78;;;;;;;14.49;64.51;100301.13;4966866;28;20097;-82
2023/04/25 02:19:32;;;;;;;14.50;5.18;;;;;;;14.23;65.12;100283.47;4980352;28;20448;-82
2023/04/25 02:21:59;;;;;;;9.63;4.78;;;;;;;14.39;65.34;100305.81;4989948;28;20395;-82
2023/04/25 02:24:29;;;;;;;7.20;4.25;;;;;;;14.24;65.50;100297.66;4986821;28;20053;-80
2023/04/25 02:27:01;;;;;;;11.73;4.82;;;;;;;14.17;65.75;100288.66;4978972;28;20740;-82
2023/04/25 02:29:50;;;;;;;7.93;4.65;;;;;;;14.07;65.91;100275.47;5001095;28;20049;-83
2023/04/25 02:32:20;;;;;;;9.95;4.00;;;;;;;14.21;65.68;100282.81;4985799;28;20089;-81
2023/04/25 02:34:50;;;;;;;10.43;5.35;;;;;;;13.95;66.00;100244.78;4986192;28;20054;-80
2023/04/25 02:37:17;;;;;;;14.43;4.55;;;;;;;14.28;65.73;100299.81;4991128;28;20275;-82
2023/04/25 02:39:47;;;;;;;14.95;4.63;;;;;;;14.02;65.50;100272.47;4965994;28;20687;-81
2023/04/25 02:42:19;;;;;;;12.73;5.65;;;;;;;14.09;65.91;100284.97;4969672;28;20054;-81
2023/04/25 02:44:46;;;;;;;13.05;4.75;;;;;;;14.18;65.44;100276.97;4988861;28;20050;-80
2023/04/25 02:47:16;;;;;;;12.13;4.90;;;;;;;13.83;66.25;100229.09;4980061;28;20054;-82
2023/04/25 02:49:46;;;;;;;12.10;5.10;;;;;;;14.08;66.12;100282.50;5006990;28;20356;-81
2023/04/25 02:52:22;;;;;;;14.13;5.05;;;;;;;13.88;65.59;100232.13;4962551;28;20050;-83
2023/04/25 02:54:49;;;;;;;10.13;4.28;;;;;;;13.81;65.93;100228.44;4975515;28;20275;-82
2023/04/25 02:57:16;;;;;;;14.63;5.05;;;;;;;13.96;65.93;100260.63;4961374;28;20299;-83
2023/04/25 02:59:43;;;;;;;10.77;4.70;;;;;;;13.91;66.17;100249.63;4965130;28;20080;-83
2023/04/25 03:02:24;;;;;;;14.15;4.13;;;;;;;14.13;66.09;100273.97;4974619;28;20383;-81
2023/04/25 03:04:58;;;;;;;13.02;4.63;;;;;;;14.10;66.33;100272.47;4988397;28;20061;-82
2023/04/25 03:07:25;;;;;;;9.05;4.50;;;;;;;14.07;66.42;100278.97;4990964;28;20051;-82
2023/04/25 03:09:56;;;;;;;12.57;4.28;;;;;;;13.95;66.68;100260.78;4973778;28;20332;-82
2023/04/25 03:12:23;;;;;;;10.70;4.60;;;;;;;13.65;66.13;100183.09;4983494;28;20390;-83
2023/04/25 03:14:50;;;;;;;13.20;4.63;;;;;;;14.11;66.40;100263.47;5001985;28;20050;-81
2023/04/25 03:17:19;;;;;;;11.63;5.40;;;;;;;14.09;66.67;100257.44;4988660;28;20049;-82
2023/04/25 03:19:48;;;;;;;13.20;5.05;;;;;;;14.00;66.88;100258.44;4986166;28;20063;-83
2023/04/25 03:22:20;;;;;;;11.85;4.55;;;;;;;13.17;66.58;100124.19;5006600;28;20133;-81
2023/04/25 03:24:50;;;;;;;17.23;5.72;;;;;;;12.97;66.68;100113.00;5009129;28;20412;-82
2023/04/25 03:27:17;;;;;;;10.73;4.95;;;;;;;13.60;66.70;100204.09;5005958;28;20053;-81
2023/04/25 03:29:49;;;;;;;10.55;4.82;;;;;;;13.88;66.73;100261.47;4992880;28;20060;-82
2023/04/25 03:32:19;;;;;;;9.25;5.05;;;;;;;13.84;66.99;100254.78;4997488;28;20391;-81
2023/04/25 03:34:49;;;;;;;19.92;5.70;;;;;;;13.79;66.58;100229.63;4985090;28;20051;-82
2023/04/25 03:37:21;;;;;;;12.27;4.95;;;;;;;13.75;67.09;100237.09;4978188;28;20341;-83
2023/04/25 03:39:48;;;;;;;14.13;4.65;;;;;;;13.49;66.48;100199.91;4977298;28;20478;-83
2023/04/25 03:42:17;;;;;;;16.55;5.28;;;;;;;13.52;66.97;100193.41;4982620;28;20058;-81
2023/04/25 03:44:44;;;;;;;12.80;5.10;;;;;;;13.60;66.62;100209.44;5002909;28;20521;-84
2023/04/25 03:47:11;;;;;;;14.13;4.60;;;;;;;13.95;66.42;100242.94;4999747;28;20046;-81
2023/04/25 03:49:41;;;;;;;13.63;4.82;;;;;;;13.84;66.88;100244.13;4985156;28;20050;-82
2023/04/25 03:52:14;;;;;;;8.85;4.57;;;;;;;13.76;67.20;100245.94;4981021;28;20108;-82
2023/04/25 03:54:47;;;;;;;11.05;5.13;;;;;;;13.61;67.30;100246.59;4998170;28;20511;-81
2023/04/25 03:57:24;;;;;;;13.88;4.78;;;;;;;13.53;67.33;100241.25;5001664;28;20193;-82
2023/04/25 03:59:54;;;;;;;8.68;4.50;;;;;;;13.31;68.14;100218.72;5004332;28;20261;-81
2023/04/25 04:02:21;;;;;;;16.00;5.07;;;;;;;13.09;68.70;100190.81;4993791;28;20116;-84
2023/04/25 04:04:48;;;;;;;12.20;4.65;;;;;;;13.26;68.79;100221.00;4977177;28;20295;-83
2023/04/25 04:07:15;;;;;;;12.85;4.88;;;;;;;13.12;69.22;100210.97;4980497;28;20089;-82
2023/04/25 04:09:42;;;;;;;12.02;5.20;;;;;;;13.15;69.41;100216.78;4982475;28;20101;-81
2023/04/25 04:12:09;;;;;;;16.15;5.05;;;;;;;13.08;69.79;100206.94;4983198;28;20058;-83
2023/04/25 04:14:42;;;;;;;14.73;5.03;;;;;;;13.28;69.43;100243.03;4968975;28;20349;-81
2023/04/25 04:17:08;;;;;;;10.07;4.07;;;;;;;13.24;69.47;100236.31;4968589;28;20065;-81
2023/04/25 04:19:38;;;;;;;7.88;4.18;;;;;;;13.04;69.68;100198.47;4980504;28;20046;-80
2023/04/25 04:22:04;;;;;;;15.48;5.15;;;;;;;12.97;68.76;100194.78;5006090;28;20116;-81
2023/04/25 04:24:32;;;;;;;12.07;5.25;;;;;;;12.98;69.10;100188.44;4956874;28;20045;-81
2023/04/25 04:27:02;;;;;;;15.02;4.15;;;;;;;13.14;69.52;100238.31;4959191;28;20050;-81
2023/04/25 04:29:32;;;;;;;14.32;4.22;;;;;;;12.84;69.51;100197.91;4960432;28;20046;-81
2023/04/25 04:32:00;;;;;;;14.05;4.70;;;;;;;13.15;69.58;100242.63;4972719;28;20108;-82
2023/04/25 04:34:28;;;;;;;11.23;4.78;;;;;;;13.23;69.41;100246.16;4975208;28;20408;-81
2023/04/25 04:36:55;;;;;;;12.35;4.97;;;;;;;13.17;68.29;100219.31;4970688;28;20117;-84
2023/04/25 04:39:22;;;;;;;10.32;4.78;;;;;;;13.38;67.90;100251.72;4983376;28;20574;-82
2023/04/25 04:41:48;;;;;;;10.32;6.43;;;;;;;13.44;67.77;100252.91;4984404;28;20046;-82
2023/04/25 04:44:15;;;;;;;14.70;6.93;;;;;;;13.41;67.81;100254.06;4998796;28;20282;-84
2023/04/25 04:46:42;;;;;;;9.57;7.03;;;;;;;13.50;66.58;100246.09;4978399;28;20042;-83
2023/04/25 04:49:10;;;;;;;12.10;8.50;;;;;;;13.16;66.42;100191.00;4980921;28;20054;-83
2023/04/25 04:51:38;;;;;;;12.32;7.85;;;;;;;13.54;66.73;100258.06;4961388;28;20046;-82
2023/04/25 04:54:05;;;;;;;13.43;8.13;;;;;;;13.55;66.96;100254.44;4994456;28;20295;-83
2023/04/25 04:56:41;;;;;;;14.35;8.38;;;;;;;13.61;66.23;100261.75;4997222;28;20056;-82
2023/04/25 04:59:13;;;;;;;24.95;8.90;;;;;;;13.29;66.33;100210.03;4985170;28;20049;-83
2023/04/25 05:01:40;;;;;;;14.57;8.70;;;;;;;13.66;66.23;100262.94;4983526;28;20092;-82
2023/04/25 05:04:07;;;;;;;18.50;9.63;;;;;;;13.30;66.42;100208.19;4969038;28;20523;-83
2023/04/25 05:06:34;;;;;;;16.02;9.57;;;;;;;13.72;65.91;100271.28;4941682;28;20057;-85
2023/04/25 05:09:01;;;;;;;14.02;9.68;;;;;;;13.62;65.59;100263.44;4972023;28;20076;-83
2023/04/25 05:11:28;;;;;;;13.10;10.18;;;;;;;13.75;65.29;100276.28;4980443;28;20397;-82
2023/04/25 05:13:57;;;;;;;12.13;9.60;;;;;;;13.36;65.25;100208.38;4958395;28;20061;-82
2023/04/25 05:16:24;;;;;;;17.42;9.95;;;;;;;13.76;64.86;100276.13;4977077;28;20085;-82
2023/04/25 05:18:51;;;;;;;14.35;10.20;;;;;;;13.84;64.66;100270.78;4964622;28;20165;-79
2023/04/25 05:21:21;;;;;;;13.48;10.13;;;;;;;13.78;64.78;100270.63;4973582;28;20117;-82
2023/04/25 05:23:48;;;;;;;15.35;11.10;;;;;;;13.61;64.73;100243.09;4963847;28;20050;-81
2023/04/25 05:26:15;;;;;;;15.55;10.77;;;;;;;13.83;64.19;100271.78;4955433;28;20133;-81
2023/04/25 05:28:47;;;;;;;15.27;10.80;;;;;;;13.84;64.71;100280.66;4973416;28;20407;-82
2023/04/25 05:31:14;;;;;;;14.40;11.18;;;;;;;13.87;64.96;100285.66;4916318;28;20779;-81
2023/04/25 05:33:44;;;;;;;20.40;11.52;;;;;;;13.89;64.66;100284.47;4962536;28;20042;-83
2023/04/25 05:36:15;;;;;;;20.73;11.65;;;;;;;13.74;64.83;100264.78;4959127;28;20044;-84
2023/04/25 05:38:44;;;;;;;20.67;11.68;;;;;;;13.76;64.16;100256.59;4980945;28;20921;-80
2023/04/25 05:41:13;;;;;;;18.05;10.52;;;;;;;13.95;64.18;100284.81;4961044;28;20085;-82
2023/04/25 05:43:45;;;;;;;15.13;10.88;;;;;;;13.84;64.01;100269.97;4958918;28;20213;-80
2023/04/25 05:46:14;;;;;;;18.52;11.50;;;;;;;14.07;64.15;100302.16;4980233;28;20272;-82
2023/04/25 05:48:41;;;;;;;18.23;12.48;;;;;;;14.04;64.18;100297.16;4970501;28;20391;-83
2023/04/25 05:51:08;;;;;;;15.65;10.80;;;;;;;13.76;64.34;100244.13;4962573;28;20069;-83
2023/04/25 05:53:36;;;;;;;15.77;9.85;;;;;;;14.10;64.19;100299.16;4986393;28;20675;-83
2023/04/25 05:56:04;;;;;;;13.40;10.00;;;;;;;14.15;64.00;100304.84;4991326;28;20050;-81
2023/04/25 05:58:31;;;;;;;16.48;10.50;;;;;;;13.97;63.93;100274.81;4967226;28;20042;-80
2023/04/25 06:01:02;;;;;;;17.02;11.13;;;;;;;14.12;63.36;100297.16;4975412;28;20050;-82
2023/04/25 06:03:31;;;;;;;17.00;11.43;;;;;;;13.95;63.30;100260.78;4979309;28;20499;-83
2023/04/25 06:06:01;;;;;;;23.48;11.20;;;;;;;13.98;62.72;100271.13;4985655;28;20056;-80
2023/04/25 06:08:28;;;;;;;17.63;11.80;;;;;;;14.11;62.88;100287.50;4978365;28;20053;-81
2023/04/25 06:10:55;;;;;;;23.77;12.63;;;;;;;13.94;62.39;100254.63;4982474;28;20043;-80
2023/04/25 06:13:30;;;;;;;19.60;12.40;;;;;;;13.95;62.09;100242.09;4958380;28;20050;-81
2023/04/25 06:16:02;;;;;;;17.67;12.60;;;;;;;14.16;62.39;100301.16;4946152;28;20108;-81
2023/04/25 06:18:34;;;;;;;15.63;10.63;;;;;;;14.18;63.12;100296.50;4966217;28;20073;-80
2023/04/25 06:21:13;;;;;;;16.70;11.77;;;;;;;14.12;63.17;100286.47;4961112;28;20074;-80
2023/04/25 06:23:49;;;;;;;17.13;11.68;;;;;;;14.09;63.10;100284.97;4959707;28;20065;-83
2023/04/25 06:26:19;;;;;;;17.83;12.80;;;;;;;13.99;62.29;100251.47;4969281;28;20439;-80
2023/04/25 06:28:46;;;;;;;22.10;12.07;;;;;;;14.23;62.48;100293.34;4968537;28;20379;-80
2023/04/25 06:31:32;;;;;;;22.60;12.45;;;;;;;14.02;61.50;100246.59;4976056;28;20108;-81
2023/04/25 06:33:59;;;;;;;19.58;13.48;;;;;;;14.30;61.58;100307.69;4967649;28;20400;-81
2023/04/25 06:36:27;;;;;;;22.90;13.13;;;;;;;14.30;62.02;100303.16;4970748;28;20456;-80
2023/04/25 06:38:59;;;;;;;24.02;13.40;;;;;;;13.92;62.39;100263.81;4975175;28;20589;-81
2023/04/25 06:41:31;;;;;;;24.27;14.40;;;;;;;14.37;61.59;100310.50;4967092;28;20054;-83
2023/04/25 06:44:02;;;;;;;23.20;15.38;;;;;;;14.46;61.37;100328.19;4985775;28;20247;-80
2023/04/25 06:46:32;;;;;;;22.63;15.27;;;;;;;14.49;61.49;100327.84;4991242;28;20073;-82
2023/04/25 06:49:02;;;;;;;25.33;15.82;;;;;;;14.45;62.20;100337.22;4970626;28;20860;-80
2023/04/25 06:51:32;;;;;;;21.60;15.30;;;;;;;14.03;62.44;100274.13;4984177;28;20073;-82
2023/04/25 06:54:05;;;;;;;25.00;15.77;;;;;;;14.33;62.43;100316.16;4974190;28;20050;-83
2023/04/25 06:56:35;;;;;;;20.50;15.02;;;;;;;14.28;62.97;100321.19;4984377;28;20209;-82
2023/04/25 06:59:08;;;;;;;19.05;14.05;;;;;;;14.40;63.47;100335.03;4987523;28;20109;-83
2023/04/25 07:01:42;;;;;;;18.98;14.75;;;;;;;14.36;64.29;100325.69;4975994;28;20062;-80
2023/04/25 07:04:09;;;;;;;21.20;14.82;;;;;;;14.40;64.49;100344.88;4983061;28;20546;-80
2023/04/25 07:06:42;;;;;;;20.10;15.25;;;;;;;14.28;64.10;100305.16;4962486;28;20157;-81
2023/04/25 07:09:16;;;;;;;18.10;14.98;;;;;;;14.51;64.65;100344.53;4961394;28;20046;-81
2023/04/25 07:11:46;;;;;;;18.87;13.97;;;;;;;13.72;64.94;100233.94;4982814;28;20135;-81
2023/04/25 07:14:13;;;;;;;17.92;14.65;;;;;;;14.50;65.49;100361.56;4987876;28;20697;-80
2023/04/25 07:16:46;;;;;;;15.95;12.90;;;;;;;14.65;65.17;100359.09;4983371;28;20084;-82
2023/04/25 07:19:18;;;;;;;14.68;12.52;;;;;;;14.66;64.83;100361.59;4982914;28;20520;-81
2023/04/25 07:21:48;;;;;;;12.82;11.27;;;;;;;14.33;65.20;100339.38;4981792;28;20229;-81
2023/04/25 07:24:25;;;;;;;11.40;10.20;;;;;;;14.27;64.91;100311.53;4985379;28;20046;-80
2023/04/25 07:27:01;;;;;;;14.82;9.73;;;;;;;14.49;65.76;100373.25;4986550;28;20138;-82
2023/04/25 07:29:38;;;;;;;15.10;9.77;;;;;;;14.43;66.42;100381.94;4978184;28;20217;-81
2023/04/25 07:32:14;;;;;;;13.80;9.30;;;;;;;14.45;66.22;100374.59;4963183;28;20061;-82
2023/04/25 07:34:41;;;;;;;13.23;9.13;;;;;;;14.24;65.94;100327.84;4992395;28;20325;-81
2023/04/25 07:37:08;;;;;;;15.82;9.75;;;;;;;14.72;65.45;100373.44;4990852;28;20050;-82
2023/04/25 07:39:39;;;;;;;14.80;9.27;;;;;;;14.47;65.30;100345.88;4986366;28;20335;-82
2023/04/25 07:42:08;;;;;;;12.65;8.98;;;;;;;14.55;65.78;100375.28;4985758;28;20061;-82
2023/04/25 07:44:42;;;;;;;13.38;9.93;;;;;;;14.43;66.01;100374.75;4970819;28;20353;-81
2023/04/25 07:47:11;;;;;;;16.83;10.80;;;;;;;14.14;66.46;100334.38;4980279;28;20054;-84
2023/04/25 07:49:45;;;;;;;11.05;9.88;;;;;;;14.52;66.49;100389.78;4988358;28;20057;-82
2023/04/25 07:52:17;;;;;;;19.60;10.65;;;;;;;14.46;66.11;100377.09;4984571;28;20052;-82
2023/04/25 07:54:48;;;;;;;15.77;10.55;;;;;;;14.74;66.09;100406.16;4975441;28;20054;-83
2023/04/25 07:57:16;;;;;;;19.63;9.73;;;;;;;14.52;66.72;100365.75;4986451;28;20048;-82
2023/04/25 07:59:46;;;;;;;16.45;10.30;;;;;;;14.42;66.31;100326.88;4984667;28;20058;-83
2023/04/25 08:02:13;;;;;;;20.58;9.88;;;;;;;14.69;65.63;100350.56;4972128;28;20167;-83
2023/04/25 08:04:40;;;;;;;23.88;10.55;;;;;;;14.78;65.40;100355.88;4959890;28;20050;-81
2023/04/25 08:07:10;;;;;;;18.80;10.43;;;;;;;14.90;65.15;100368.75;4975130;28;20746;-84
2023/04/25 08:09:37;;;;;;;12.32;9.00;;;;;;;15.08;65.57;100418.50;4969198;28;20116;-81
2023/04/25 08:12:05;;;;;;;13.45;9.75;;;;;;;15.17;64.72;100412.13;4970789;28;20075;-83
2023/04/25 08:14:36;;;;;;;16.10;10.38;;;;;;;15.18;64.27;100397.75;4967304;28;20499;-83
2023/04/25 08:17:07;;;;;;;14.43;11.07;;;;;;;15.03;65.39;100410.97;4968350;28;20054;-83
2023/04/25 08:19:33;;;;;;;16.52;11.13;;;;;;;14.87;65.48;100379.75;4962636;28;20046;-81
2023/04/25 08:22:00;;;;;;;20.35;11.57;;;;;;;15.25;65.80;100427.31;4985289;28;20056;-83
2023/04/25 08:24:30;;;;;;;16.58;10.90;;;;;;;15.48;65.10;100425.53;4992598;28;20575;-80
2023/04/25 08:26:58;;;;;;;12.82;10.10;;;;;;;15.60;64.76;100434.03;4991512;28;20054;-81
2023/04/25 08:29:26;;;;;;;15.35;10.40;;;;;;;15.52;65.16;100436.75;4992331;28;20137;-83
2023/04/25 08:31:57;;;;;;;11.32;9.38;;;;;;;15.40;64.65;100422.91;4971755;28;20061;-82
2023/04/25 08:34:32;;;;;;;16.77;10.07;;;;;;;15.40;64.81;100441.63;4992233;28;20085;-81
2023/04/25 08:37:13;;;;;;;10.85;9.80;;;;;;;15.47;64.95;100469.38;4972984;28;20125;-84
2023/04/25 08:39:41;;;;;;;14.20;10.93;;;;;;;15.09;65.73;100441.53;4990454;28;20417;-85
2023/04/25 08:42:10;;;;;;;17.55;11.32;;;;;;;15.04;66.58;100460.75;4992565;28;20487;-83
2023/04/25 08:44:38;;;;;;;15.43;12.02;;;;;;;15.05;66.74;100453.56;4989882;28;20050;-83
2023/04/25 08:47:11;;;;;;;14.73;10.43;;;;;;;15.10;67.36;100470.78;4991364;28;20326;-84
2023/04/25 08:49:39;;;;;;;11.63;8.80;;;;;;;14.56;67.35;100402.81;4972268;28;20196;-84
2023/04/25 08:52:21;;;;;;;10.55;7.32;;;;;;;13.98;68.61;100343.19;4973615;28;20054;-83
2023/04/25 08:54:51;;;;;;;5.75;5.05;;;;;;;14.53;68.80;100470.75;4973368;28;20056;-82
2023/04/25 08:57:18;;;;;;;4.43;3.83;;;;;;;14.50;68.69;100492.44;4969179;28;20539;-82
2023/04/25 08:59:49;;;;;;;3.88;2.60;;;;;;;14.39;68.21;100466.88;4967329;28;20054;-84
2023/04/25 09:02:20;;;;;;;3.20;2.17;;;;;;;14.53;68.32;100492.97;4966615;28;20065;-83
2023/04/25 09:04:59;;;;;;;;;;;;;;;14.61;68.18;100508.22;4979363;28;20053;-81
2023/04/25 09:07:30;;;;;;;5.15;1.83;;;;;;;14.60;66.97;100482.47;4967088;28;20391;-83
2023/04/25 09:10:03;;;;;;;1.63;1.50;;;;;;;14.81;66.44;100508.72;4983028;28;20744;-83
2023/04/25 09:12:36;;;;;;;5.28;1.80;;;;;;;14.83;64.93;100503.19;5000444;28;20107;-77
2023/04/25 09:15:08;;;;;;;5.40;2.53;;;;;;;14.66;65.28;100500.53;4986371;28;20547;-80
2023/04/25 09:17:41;;;;;;;3.47;2.30;;;;;;;14.80;64.40;100522.25;5002047;28;20132;-82
2023/04/25 09:20:13;;;;;;;4.20;1.70;;;;;;;14.70;63.45;100509.03;4989149;28;20475;-82
2023/04/25 09:22:49;;;;;;;2.37;1.40;;;;;;;14.92;61.88;100512.88;4981801;28;20416;-77
2023/04/25 09:25:18;;;;;;;5.80;1.13;;;;;;;14.83;61.37;100533.44;5007845;28;20332;-86
2023/04/25 09:27:55;;;;;;;2.45;1.50;;;;;;;14.73;62.25;100516.72;4973652;28;20050;-83
2023/04/25 09:30:33;;;;;;;1.00;0.80;;;;;;;14.85;61.32;100530.59;4985211;28;20053;-84
2023/04/25 09:33:11;;;;;;;1.48;0.90;;;;;;;14.29;60.12;100445.66;4998810;28;20058;-84
2023/04/25 09:35:43;;;;;;;4.25;1.40;;;;;;;14.66;59.74;100487.16;4989989;28;20050;-82
2023/04/25 09:38:18;;;;;;;3.20;1.10;;;;;;;13.82;58.46;100352.84;4992357;28;20107;-85
2023/04/25 09:40:46;;;;;;;0.90;0.65;;;;;;;14.78;59.11;100540.25;4991469;28;20045;-84
2023/04/25 09:43:22;;;;;;;3.55;1.70;;;;;;;14.27;58.12;100429.00;4998019;28;20413;-84
2023/04/25 09:45:51;;;;;;;3.03;1.35;;;;;;;15.00;58.46;100561.03;4983134;28;20429;-83
2023/04/25 09:48:27;;;;;;;1.38;0.60;;;;;;;14.92;56.84;100523.56;4982791;28;20333;-82
2023/04/25 09:51:14;;;;;;;1.33;0.85;;;;;;;14.84;57.19;100524.41;4997985;28;20517;-81
2023/04/25 09:53:51;;;;;;;1.48;1.38;;;;;;;15.10;57.80;100566.22;4964585;28;20054;-83
2023/04/25 09:56:24;;;;;;;1.85;1.67;;;;;;;15.07;57.04;100527.28;4970866;28;20589;-84
2023/04/25 09:58:54;;;;;;;2.42;1.65;;;;;;;15.29;56.86;100565.00;4971891;28;20511;-83
2023/04/25 10:01:23;;;;;;;1.85;0.70;;;;;;;15.07;56.98;100540.66;4971332;28;20046;-84
2023/04/25 10:03:58;;;;;;;1.85;1.10;;;;;;;15.36;56.69;100566.88;4976319;28;20097;-84
2023/04/25 10:06:28;;;;;;;1.65;0.90;;;;;;;15.28;56.79;100536.59;4965103;28;20058;-84
2023/04/25 10:09:00;;;;;;;3.35;1.00;;;;;;;15.55;55.96;100564.81;4981355;28;20443;-83
2023/04/25 10:11:32;;;;;;;1.95;0.80;;;;;;;15.64;53.97;100555.78;4999247;28;20112;-84
2023/04/25 10:14:00;;;;;;;5.30;1.05;;;;;;;15.75;53.66;100562.63;5014009;28;20046;-83
2023/04/25 10:16:34;;;;;;;1.63;0.60;;;;;;;15.35;54.11;100510.84;5006540;28;20372;-83
2023/04/25 10:19:19;;;;;;;2.05;0.60;;;;;;;15.74;53.75;100537.72;4994360;28;20167;-84
2023/04/25 10:22:07;;;;;;;1.45;1.00;;;;;;;14.86;53.03;100377.28;4985774;28;20432;-83
2023/04/25 10:24:38;;;;;;;0.85;0.70;;;;;;;15.89;53.57;100548.53;5001229;28;20049;-83
2023/04/25 10:27:06;;;;;;;2.30;1.27;;;;;;;15.89;53.34;100535.16;5010113;28;20375;-83
2023/04/25 10:29:33;;;;;;;1.45;0.68;;;;;;;15.94;53.61;100538.16;4988325;28;20820;-82
2023/04/25 10:32:12;;;;;;;1.90;0.85;;;;;;;16.07;53.23;100518.88;5006100;28;20049;-82
2023/04/25 10:34:46;;;;;;;1.13;0.70;;;;;;;16.38;52.56;100537.63;5006110;28;20087;-81
2023/04/25 10:37:14;;;;;;;1.58;0.70;;;;;;;16.45;52.08;100530.53;4988833;28;20046;-84
2023/04/25 10:39:43;;;;;;;2.40;0.90;;;;;;;15.64;51.74;100381.84;4995937;28;20164;-83
2023/04/25 10:42:11;;;;;;;0.85;0.68;;;;;;;16.72;51.81;100536.41;4988303;28;20053;-81
2023/04/25 10:44:41;;;;;;;1.33;1.10;;;;;;;16.75;51.96;100541.44;4999556;28;20046;-82
2023/04/25 10:47:13;;;;;;;0.77;0.75;;;;;;;16.73;52.09;100539.94;4989605;28;20276;-83
2023/04/25 10:49:42;;;;;;;1.95;1.50;;;;;;;16.27;52.08;100440.78;5001355;28;20054;-85
2023/04/25 10:52:28;;;;;;;1.98;1.00;;;;;;;16.88;52.06;100530.97;5006252;28;20515;-84
2023/04/25 10:54:56;;;;;;;4.03;0.85;;;;;;;16.12;51.51;100397.84;5007725;28;20113;-82
2023/04/25 10:57:30;;;;;;;1.70;1.60;;;;;;;16.81;51.25;100491.66;4989532;28;20052;-83
2023/04/25 11:00:11;;;;;;;1.75;1.45;;;;;;;17.15;51.86;100520.69;5007422;28;20447;-83
2023/04/25 11:02:58;;;;;;;3.58;0.80;;;;;;;15.87;52.09;100296.25;4987810;28;20334;-83
2023/04/25 11:05:40;;;;;;;1.38;1.00;;;;;;;16.79;52.27;100443.56;4996659;28;20385;-83
2023/04/25 11:08:47;;;;;;;1.95;1.20;;;;;;;17.26;52.18;100509.53;4989401;28;20042;-83
2023/04/25 11:11:17;;;;;;;6.18;3.60;;;;;;;17.36;52.27;100500.38;4996526;28;20054;-82
2023/04/25 11:13:48;;;;;;;3.65;1.83;;;;;;;17.44;50.20;100486.88;4987123;28;20057;-85
2023/04/25 11:16:15;;;;;;;1.80;1.10;;;;;;;17.80;49.88;100508.47;4984220;28;20504;-83
2023/04/25 11:18:53;;;;;;;1.30;0.90;;;;;;;17.76;50.12;100491.03;4993363;28;20448;-85
2023/04/25 11:21:23;;;;;;;2.67;1.10;;;;;;;17.85;50.98;100518.66;4984558;28;20322;-83
2023/04/25 11:23:49;;;;;;;1.70;0.65;;;;;;;17.91;50.57;100515.22;5008319;28;20076;-81
2023/04/25 11:26:20;;;;;;;1.42;0.90;;;;;;;17.65;50.60;100468.19;5015878;28;20193;-80
2023/04/25 11:28:49;;;;;;;2.15;0.70;;;;;;;17.64;50.42;100493.34;5001397;28;20486;-80
2023/04/25 11:31:22;;;;;;;2.30;0.90;;;;;;;17.96;50.32;100523.53;4989750;28;20519;-81
2023/04/25 11:34:05;;;;;;;1.90;0.73;;;;;;;17.78;50.36;100512.34;5003693;28;20050;-81
2023/04/25 11:36:32;;;;;;;1.10;0.88;;;;;;;18.06;50.03;100526.81;4987630;28;20050;-81
2023/04/25 11:39:23;;;;;;;1.27;0.75;;;;;;;18.10;49.93;100501.22;5000778;28;20050;-81